首页
METAR-TAF:

METAR-TAF

机场 :

杰克逊, 怀俄明州, 美国

纬度: 43-36N, 经度: 110-44W, 海拔: 1964米

当前天气观测

该预报发布于51分钟前的07:56 UTC
风速8节,风向北转东北
温度 -13°C
湿度 72%
气压 1019 hPa
能見度: 16.1公里
天空无云

METAR: KJAC 030756Z AUTO 02008KT 10SM CLR M13/M17 A3008 RMK AO2 SLP257 T11281167 FZRANO

时间: 02:47 (08:47 UTC)

预报

该预报发布于3小时和24分钟前的05:23 UTC
预报有效从03日的 06点(UTC)到 04日的 06点(UTC)
风速5节,风向
能見度: 10公里
散云层高于9000英尺
从 03日的 1500点(UTC)
风速4节,风向多变
能見度: 10公里
少量云层高于7000英尺
从 03日的 1900点(UTC)
风速6节,风向南转西南
能見度: 10公里
散云层高于6000英尺
从 03日的 2200点(UTC)
风速6节,风向南转西南
能見度: 10公里
多云层高于6000英尺
附近有阵雨
从 04日的 0200点(UTC)
风速4节,风向多变
能見度: 10公里
散云层高于6000英尺

TAF: KJAC 030523Z 0306/0406 36005KT P6SM SCT090 FM031500 VRB04KT P6SM FEW070 FM031900 20006KT P6SM SCT060 FM032200 20006KT P6SM VCSH BKN060 FM040200 VRB04KT P6SM SCT060

超过4000个机场的气象观测和天气预报(METAR&TAF报告)。

可查询的气象台以黄色和红色小点在地图上表示。

将鼠标移到小点上方,可查看气象台名称。

然后点击查看天气观测和预报。

如需切换地图:点击带黑十字的绿色按钮放大地图;点击带横线的绿色按钮缩小地图;或者点击绿色箭头查看邻近地区的地图。


METAR-TAF: